sensor_id;sensor_type;location;lat;lon;timestamp;P1;durP1;ratioP1;P2;durP2;ratioP2
19151;SDS011;9708;53.114;9.388;2023-03-23T00:00:58;10.03;;;4.13;;
19151;SDS011;9708;53.114;9.388;2023-03-23T00:03:27;7.93;;;4.67;;
19151;SDS011;9708;53.114;9.388;2023-03-23T00:05:56;6.73;;;4.47;;
19151;SDS011;9708;53.114;9.388;2023-03-23T00:08:29;10.33;;;5.60;;
19151;SDS011;9708;53.114;9.388;2023-03-23T00:10:56;13.47;;;5.10;;
19151;SDS011;9708;53.114;9.388;2023-03-23T00:13:23;10.33;;;4.97;;
19151;SDS011;9708;53.114;9.388;2023-03-23T00:15:50;11.20;;;4.90;;
19151;SDS011;9708;53.114;9.388;2023-03-23T00:18:18;7.50;;;4.63;;
19151;SDS011;9708;53.114;9.388;2023-03-23T00:20:48;9.83;;;5.00;;
19151;SDS011;9708;53.114;9.388;2023-03-23T00:23:16;9.20;;;5.43;;
19151;SDS011;9708;53.114;9.388;2023-03-23T00:25:47;12.00;;;4.33;;
19151;SDS011;9708;53.114;9.388;2023-03-23T00:28:15;8.30;;;4.70;;
19151;SDS011;9708;53.114;9.388;2023-03-23T00:30:43;11.50;;;5.27;;
19151;SDS011;9708;53.114;9.388;2023-03-23T00:33:10;5.63;;;4.00;;
19151;SDS011;9708;53.114;9.388;2023-03-23T00:35:39;8.17;;;5.10;;
19151;SDS011;9708;53.114;9.388;2023-03-23T00:38:07;13.67;;;5.63;;
19151;SDS011;9708;53.114;9.388;2023-03-23T00:40:34;12.77;;;5.67;;
19151;SDS011;9708;53.114;9.388;2023-03-23T00:43:01;12.07;;;6.40;;
19151;SDS011;9708;53.114;9.388;2023-03-23T00:45:29;12.63;;;6.63;;
19151;SDS011;9708;53.114;9.388;2023-03-23T00:47:56;15.57;;;6.47;;
19151;SDS011;9708;53.114;9.388;2023-03-23T00:50:26;12.90;;;6.43;;
19151;SDS011;9708;53.114;9.388;2023-03-23T00:52:54;8.20;;;4.57;;
19151;SDS011;9708;53.114;9.388;2023-03-23T00:55:23;7.13;;;4.97;;
19151;SDS011;9708;53.114;9.388;2023-03-23T00:57:50;8.33;;;5.23;;
19151;SDS011;9708;53.114;9.388;2023-03-23T01:00:17;8.87;;;5.53;;
19151;SDS011;9708;53.114;9.388;2023-03-23T01:02:45;10.20;;;4.60;;
19151;SDS011;9708;53.114;9.388;2023-03-23T01:05:12;11.00;;;5.47;;
19151;SDS011;9708;53.114;9.388;2023-03-23T01:07:39;8.10;;;5.00;;
19151;SDS011;9708;53.114;9.388;2023-03-23T01:10:06;6.53;;;4.20;;
19151;SDS011;9708;53.114;9.388;2023-03-23T01:12:35;8.23;;;5.40;;
19151;SDS011;9708;53.114;9.388;2023-03-23T01:15:02;7.60;;;4.63;;
19151;SDS011;9708;53.114;9.388;2023-03-23T01:17:29;6.00;;;4.67;;
19151;SDS011;9708;53.114;9.388;2023-03-23T01:19:56;10.07;;;3.87;;
19151;SDS011;9708;53.114;9.388;2023-03-23T01:22:22;12.30;;;4.77;;
19151;SDS011;9708;53.114;9.388;2023-03-23T01:24:49;5.57;;;4.47;;
19151;SDS011;9708;53.114;9.388;2023-03-23T01:27:16;6.00;;;3.33;;
19151;SDS011;9708;53.114;9.388;2023-03-23T01:29:44;6.63;;;4.27;;
19151;SDS011;9708;53.114;9.388;2023-03-23T01:32:11;7.57;;;4.90;;
19151;SDS011;9708;53.114;9.388;2023-03-23T01:34:38;7.43;;;4.60;;
19151;SDS011;9708;53.114;9.388;2023-03-23T01:37:05;8.03;;;4.07;;
19151;SDS011;9708;53.114;9.388;2023-03-23T01:39:31;6.77;;;4.00;;
19151;SDS011;9708;53.114;9.388;2023-03-23T01:41:58;6.20;;;4.67;;
19151;SDS011;9708;53.114;9.388;2023-03-23T01:47:31;7.03;;;3.97;;
19151;SDS011;9708;53.114;9.388;2023-03-23T01:49:57;7.13;;;4.03;;
19151;SDS011;9708;53.114;9.388;2023-03-23T01:52:25;7.77;;;3.93;;
19151;SDS011;9708;53.114;9.388;2023-03-23T01:54:55;7.50;;;4.70;;
19151;SDS011;9708;53.114;9.388;2023-03-23T01:57:23;7.27;;;4.77;;
19151;SDS011;9708;53.114;9.388;2023-03-23T01:59:53;7.67;;;4.67;;
19151;SDS011;9708;53.114;9.388;2023-03-23T02:02:23;10.27;;;5.07;;
19151;SDS011;9708;53.114;9.388;2023-03-23T02:04:54;4.90;;;4.13;;
19151;SDS011;9708;53.114;9.388;2023-03-23T02:07:27;10.17;;;4.53;;
19151;SDS011;9708;53.114;9.388;2023-03-23T02:09:54;6.67;;;4.73;;
19151;SDS011;9708;53.114;9.388;2023-03-23T02:12:20;8.47;;;4.43;;
19151;SDS011;9708;53.114;9.388;2023-03-23T02:14:47;11.93;;;5.37;;
19151;SDS011;9708;53.114;9.388;2023-03-23T02:17:15;5.67;;;4.57;;
19151;SDS011;9708;53.114;9.388;2023-03-23T02:19:57;7.70;;;4.40;;
19151;SDS011;9708;53.114;9.388;2023-03-23T02:22:48;6.33;;;4.27;;
19151;SDS011;9708;53.114;9.388;2023-03-23T02:25:48;5.27;;;4.17;;
19151;SDS011;9708;53.114;9.388;2023-03-23T02:31:37;6.43;;;4.40;;
19151;SDS011;9708;53.114;9.388;2023-03-23T02:34:13;5.50;;;4.20;;
19151;SDS011;9708;53.114;9.388;2023-03-23T02:36:45;6.93;;;4.40;;
19151;SDS011;9708;53.114;9.388;2023-03-23T02:39:17;6.33;;;4.73;;
19151;SDS011;9708;53.114;9.388;2023-03-23T02:41:47;5.60;;;3.73;;
19151;SDS011;9708;53.114;9.388;2023-03-23T02:44:18;6.87;;;4.30;;
19151;SDS011;9708;53.114;9.388;2023-03-23T02:46:46;7.57;;;4.53;;
19151;SDS011;9708;53.114;9.388;2023-03-23T02:49:16;5.20;;;4.03;;
19151;SDS011;9708;53.114;9.388;2023-03-23T02:51:44;4.97;;;3.97;;
19151;SDS011;9708;53.114;9.388;2023-03-23T02:54:13;7.53;;;4.00;;
19151;SDS011;9708;53.114;9.388;2023-03-23T02:56:42;7.33;;;4.33;;
19151;SDS011;9708;53.114;9.388;2023-03-23T02:59:10;9.77;;;4.30;;
19151;SDS011;9708;53.114;9.388;2023-03-23T03:01:55;7.50;;;4.37;;
19151;SDS011;9708;53.114;9.388;2023-03-23T03:04:31;8.40;;;5.03;;
19151;SDS011;9708;53.114;9.388;2023-03-23T03:07:19;7.53;;;4.97;;
19151;SDS011;9708;53.114;9.388;2023-03-23T03:10:01;8.87;;;4.77;;
19151;SDS011;9708;53.114;9.388;2023-03-23T03:12:33;7.90;;;4.53;;
19151;SDS011;9708;53.114;9.388;2023-03-23T03:15:09;6.97;;;4.50;;
19151;SDS011;9708;53.114;9.388;2023-03-23T03:17:44;6.83;;;4.87;;
19151;SDS011;9708;53.114;9.388;2023-03-23T03:20:17;9.00;;;4.57;;
19151;SDS011;9708;53.114;9.388;2023-03-23T03:22:44;5.97;;;4.67;;
19151;SDS011;9708;53.114;9.388;2023-03-23T03:25:13;8.87;;;4.97;;
19151;SDS011;9708;53.114;9.388;2023-03-23T03:27:41;10.47;;;5.80;;
19151;SDS011;9708;53.114;9.388;2023-03-23T03:30:14;6.03;;;3.87;;
19151;SDS011;9708;53.114;9.388;2023-03-23T03:32:46;8.00;;;4.03;;
19151;SDS011;9708;53.114;9.388;2023-03-23T03:35:16;6.17;;;5.23;;
19151;SDS011;9708;53.114;9.388;2023-03-23T03:37:44;7.13;;;5.00;;
19151;SDS011;9708;53.114;9.388;2023-03-23T03:40:12;6.37;;;4.90;;
19151;SDS011;9708;53.114;9.388;2023-03-23T03:42:41;7.20;;;4.83;;
19151;SDS011;9708;53.114;9.388;2023-03-23T03:45:11;8.67;;;4.97;;
19151;SDS011;9708;53.114;9.388;2023-03-23T03:47:39;7.47;;;5.37;;
19151;SDS011;9708;53.114;9.388;2023-03-23T03:50:06;6.43;;;4.87;;
19151;SDS011;9708;53.114;9.388;2023-03-23T03:52:35;7.93;;;5.50;;
19151;SDS011;9708;53.114;9.388;2023-03-23T03:55:03;8.50;;;4.97;;
19151;SDS011;9708;53.114;9.388;2023-03-23T03:57:32;7.67;;;4.90;;
19151;SDS011;9708;53.114;9.388;2023-03-23T03:59:58;6.47;;;5.10;;
19151;SDS011;9708;53.114;9.388;2023-03-23T04:02:25;7.77;;;5.40;;
19151;SDS011;9708;53.114;9.388;2023-03-23T04:04:52;7.70;;;6.30;;
19151;SDS011;9708;53.114;9.388;2023-03-23T04:07:19;7.23;;;4.83;;
19151;SDS011;9708;53.114;9.388;2023-03-23T04:09:47;9.27;;;5.90;;
19151;SDS011;9708;53.114;9.388;2023-03-23T04:12:14;9.40;;;5.20;;
19151;SDS011;9708;53.114;9.388;2023-03-23T04:14:41;5.03;;;4.43;;
19151;SDS011;9708;53.114;9.388;2023-03-23T04:17:08;7.10;;;4.33;;
19151;SDS011;9708;53.114;9.388;2023-03-23T04:19:36;7.67;;;4.63;;
19151;SDS011;9708;53.114;9.388;2023-03-23T04:22:03;5.13;;;4.27;;
19151;SDS011;9708;53.114;9.388;2023-03-23T04:24:30;4.63;;;3.80;;
19151;SDS011;9708;53.114;9.388;2023-03-23T04:26:59;5.00;;;3.97;;
19151;SDS011;9708;53.114;9.388;2023-03-23T04:29:26;5.27;;;4.77;;
19151;SDS011;9708;53.114;9.388;2023-03-23T04:31:53;6.60;;;4.73;;
19151;SDS011;9708;53.114;9.388;2023-03-23T04:34:21;5.97;;;4.67;;
19151;SDS011;9708;53.114;9.388;2023-03-23T04:36:49;6.70;;;4.53;;
19151;SDS011;9708;53.114;9.388;2023-03-23T04:39:16;5.73;;;3.60;;
19151;SDS011;9708;53.114;9.388;2023-03-23T04:41:43;8.50;;;4.83;;
19151;SDS011;9708;53.114;9.388;2023-03-23T04:44:12;4.63;;;3.67;;
19151;SDS011;9708;53.114;9.388;2023-03-23T04:46:42;7.80;;;4.10;;
19151;SDS011;9708;53.114;9.388;2023-03-23T04:49:14;4.03;;;3.20;;
19151;SDS011;9708;53.114;9.388;2023-03-23T04:51:46;5.07;;;3.77;;
19151;SDS011;9708;53.114;9.388;2023-03-23T04:54:13;5.13;;;4.07;;
19151;SDS011;9708;53.114;9.388;2023-03-23T04:56:40;6.17;;;3.43;;
19151;SDS011;9708;53.114;9.388;2023-03-23T04:59:07;4.57;;;3.20;;
19151;SDS011;9708;53.114;9.388;2023-03-23T05:01:35;4.37;;;3.50;;
19151;SDS011;9708;53.114;9.388;2023-03-23T05:04:03;4.23;;;2.87;;
19151;SDS011;9708;53.114;9.388;2023-03-23T05:06:30;11.73;;;4.27;;
19151;SDS011;9708;53.114;9.388;2023-03-23T05:08:57;5.70;;;3.30;;
19151;SDS011;9708;53.114;9.388;2023-03-23T05:11:24;3.20;;;2.53;;
19151;SDS011;9708;53.114;9.388;2023-03-23T05:13:51;7.47;;;2.93;;
19151;SDS011;9708;53.114;9.388;2023-03-23T05:16:18;4.83;;;3.23;;
19151;SDS011;9708;53.114;9.388;2023-03-23T05:18:46;5.07;;;2.97;;
19151;SDS011;9708;53.114;9.388;2023-03-23T05:21:13;4.67;;;2.97;;
19151;SDS011;9708;53.114;9.388;2023-03-23T05:23:40;4.37;;;3.30;;
19151;SDS011;9708;53.114;9.388;2023-03-23T05:26:07;3.60;;;2.83;;
19151;SDS011;9708;53.114;9.388;2023-03-23T05:28:34;4.73;;;2.90;;
19151;SDS011;9708;53.114;9.388;2023-03-23T05:31:02;3.87;;;2.97;;
19151;SDS011;9708;53.114;9.388;2023-03-23T05:33:29;2.60;;;2.33;;
19151;SDS011;9708;53.114;9.388;2023-03-23T05:35:57;4.20;;;2.50;;
19151;SDS011;9708;53.114;9.388;2023-03-23T05:38:25;4.60;;;2.33;;
19151;SDS011;9708;53.114;9.388;2023-03-23T05:40:53;5.33;;;2.50;;
19151;SDS011;9708;53.114;9.388;2023-03-23T05:43:19;4.93;;;2.90;;
19151;SDS011;9708;53.114;9.388;2023-03-23T05:45:46;8.63;;;3.43;;
19151;SDS011;9708;53.114;9.388;2023-03-23T05:48:13;4.10;;;2.57;;
19151;SDS011;9708;53.114;9.388;2023-03-23T05:50:40;3.17;;;2.67;;
19151;SDS011;9708;53.114;9.388;2023-03-23T05:53:08;3.27;;;2.83;;
19151;SDS011;9708;53.114;9.388;2023-03-23T05:55:35;8.17;;;4.10;;
19151;SDS011;9708;53.114;9.388;2023-03-23T05:58:02;3.53;;;2.20;;
19151;SDS011;9708;53.114;9.388;2023-03-23T06:00:29;16.27;;;6.80;;
19151;SDS011;9708;53.114;9.388;2023-03-23T06:02:57;7.00;;;2.90;;
19151;SDS011;9708;53.114;9.388;2023-03-23T06:05:26;2.27;;;2.03;;
19151;SDS011;9708;53.114;9.388;2023-03-23T06:07:54;3.07;;;2.57;;
19151;SDS011;9708;53.114;9.388;2023-03-23T06:10:22;5.00;;;2.67;;
19151;SDS011;9708;53.114;9.388;2023-03-23T06:12:49;2.10;;;1.87;;
19151;SDS011;9708;53.114;9.388;2023-03-23T06:15:16;2.70;;;1.87;;
19151;SDS011;9708;53.114;9.388;2023-03-23T06:17:44;3.83;;;2.27;;
19151;SDS011;9708;53.114;9.388;2023-03-23T06:20:11;2.70;;;1.80;;
19151;SDS011;9708;53.114;9.388;2023-03-23T06:22:38;5.97;;;2.07;;
19151;SDS011;9708;53.114;9.388;2023-03-23T06:25:06;2.47;;;1.70;;
19151;SDS011;9708;53.114;9.388;2023-03-23T06:27:37;2.17;;;1.47;;
19151;SDS011;9708;53.114;9.388;2023-03-23T06:30:05;1.73;;;1.60;;
19151;SDS011;9708;53.114;9.388;2023-03-23T06:32:32;3.40;;;1.93;;
19151;SDS011;9708;53.114;9.388;2023-03-23T06:35:00;1.70;;;1.60;;
19151;SDS011;9708;53.114;9.388;2023-03-23T06:37:28;11.30;;;5.53;;
19151;SDS011;9708;53.114;9.388;2023-03-23T06:39:55;3.67;;;2.70;;
19151;SDS011;9708;53.114;9.388;2023-03-23T06:42:23;2.13;;;1.90;;
19151;SDS011;9708;53.114;9.388;2023-03-23T06:44:51;7.93;;;4.23;;
19151;SDS011;9708;53.114;9.388;2023-03-23T06:47:21;2.70;;;2.30;;
19151;SDS011;9708;53.114;9.388;2023-03-23T06:49:48;2.20;;;2.00;;
19151;SDS011;9708;53.114;9.388;2023-03-23T06:52:15;2.83;;;1.93;;
19151;SDS011;9708;53.114;9.388;2023-03-23T06:54:42;4.73;;;2.27;;
19151;SDS011;9708;53.114;9.388;2023-03-23T06:57:09;3.03;;;2.10;;
19151;SDS011;9708;53.114;9.388;2023-03-23T06:59:36;2.63;;;2.10;;
19151;SDS011;9708;53.114;9.388;2023-03-23T07:02:04;2.60;;;2.33;;
19151;SDS011;9708;53.114;9.388;2023-03-23T07:04:31;5.73;;;3.67;;
19151;SDS011;9708;53.114;9.388;2023-03-23T07:06:58;8.63;;;4.37;;
19151;SDS011;9708;53.114;9.388;2023-03-23T07:09:25;4.33;;;2.17;;
19151;SDS011;9708;53.114;9.388;2023-03-23T07:11:52;5.17;;;3.60;;
19151;SDS011;9708;53.114;9.388;2023-03-23T07:14:19;2.33;;;2.13;;
19151;SDS011;9708;53.114;9.388;2023-03-23T07:16:46;4.27;;;2.30;;
19151;SDS011;9708;53.114;9.388;2023-03-23T07:19:15;2.03;;;1.83;;
19151;SDS011;9708;53.114;9.388;2023-03-23T07:21:42;3.23;;;2.37;;
19151;SDS011;9708;53.114;9.388;2023-03-23T07:24:10;2.73;;;1.97;;
19151;SDS011;9708;53.114;9.388;2023-03-23T07:26:38;2.93;;;2.23;;
19151;SDS011;9708;53.114;9.388;2023-03-23T07:29:05;3.10;;;2.33;;
19151;SDS011;9708;53.114;9.388;2023-03-23T07:31:32;2.47;;;2.23;;
19151;SDS011;9708;53.114;9.388;2023-03-23T07:33:59;6.07;;;3.20;;
19151;SDS011;9708;53.114;9.388;2023-03-23T07:36:29;4.50;;;2.60;;
19151;SDS011;9708;53.114;9.388;2023-03-23T07:38:56;7.33;;;2.33;;
19151;SDS011;9708;53.114;9.388;2023-03-23T07:41:24;2.17;;;1.93;;
19151;SDS011;9708;53.114;9.388;2023-03-23T07:43:51;1.80;;;1.70;;
19151;SDS011;9708;53.114;9.388;2023-03-23T07:46:18;2.07;;;1.60;;
19151;SDS011;9708;53.114;9.388;2023-03-23T07:48:45;2.27;;;2.10;;
19151;SDS011;9708;53.114;9.388;2023-03-23T07:51:13;2.70;;;2.47;;
19151;SDS011;9708;53.114;9.388;2023-03-23T07:53:42;13.03;;;4.10;;
19151;SDS011;9708;53.114;9.388;2023-03-23T07:56:12;8.10;;;2.27;;
19151;SDS011;9708;53.114;9.388;2023-03-23T07:58:39;4.03;;;2.60;;
19151;SDS011;9708;53.114;9.388;2023-03-23T08:01:06;3.37;;;2.70;;
19151;SDS011;9708;53.114;9.388;2023-03-23T08:03:33;4.40;;;1.73;;
19151;SDS011;9708;53.114;9.388;2023-03-23T08:06:00;2.20;;;2.00;;
19151;SDS011;9708;53.114;9.388;2023-03-23T08:08:27;5.67;;;3.80;;
19151;SDS011;9708;53.114;9.388;2023-03-23T08:10:56;3.27;;;2.20;;
19151;SDS011;9708;53.114;9.388;2023-03-23T08:13:24;2.90;;;2.30;;
19151;SDS011;9708;53.114;9.388;2023-03-23T08:15:50;2.93;;;2.10;;
19151;SDS011;9708;53.114;9.388;2023-03-23T08:18:17;3.43;;;2.97;;
19151;SDS011;9708;53.114;9.388;2023-03-23T08:20:44;4.30;;;2.50;;
19151;SDS011;9708;53.114;9.388;2023-03-23T08:23:11;2.23;;;1.90;;
19151;SDS011;9708;53.114;9.388;2023-03-23T08:25:40;2.27;;;2.07;;
19151;SDS011;9708;53.114;9.388;2023-03-23T08:28:09;4.57;;;2.10;;
19151;SDS011;9708;53.114;9.388;2023-03-23T08:30:35;2.03;;;1.60;;
19151;SDS011;9708;53.114;9.388;2023-03-23T08:33:05;4.03;;;1.83;;
19151;SDS011;9708;53.114;9.388;2023-03-23T08:35:31;1.93;;;1.60;;
19151;SDS011;9708;53.114;9.388;2023-03-23T08:37:59;1.80;;;1.70;;
19151;SDS011;9708;53.114;9.388;2023-03-23T08:40:26;1.67;;;1.57;;
19151;SDS011;9708;53.114;9.388;2023-03-23T08:42:53;10.03;;;2.53;;
19151;SDS011;9708;53.114;9.388;2023-03-23T08:45:23;5.93;;;2.37;;
19151;SDS011;9708;53.114;9.388;2023-03-23T08:47:51;1.90;;;1.77;;
19151;SDS011;9708;53.114;9.388;2023-03-23T08:50:20;5.00;;;1.13;;
19151;SDS011;9708;53.114;9.388;2023-03-23T08:52:49;3.03;;;1.03;;
19151;SDS011;9708;53.114;9.388;2023-03-23T08:55:16;2.00;;;1.20;;
19151;SDS011;9708;53.114;9.388;2023-03-23T08:57:43;1.90;;;1.67;;
19151;SDS011;9708;53.114;9.388;2023-03-23T09:00:12;3.50;;;1.03;;
19151;SDS011;9708;53.114;9.388;2023-03-23T09:02:44;2.77;;;1.37;;
19151;SDS011;9708;53.114;9.388;2023-03-23T09:05:13;6.23;;;1.33;;
19151;SDS011;9708;53.114;9.388;2023-03-23T09:07:41;2.63;;;1.23;;
19151;SDS011;9708;53.114;9.388;2023-03-23T09:10:10;1.43;;;1.07;;
19151;SDS011;9708;53.114;9.388;2023-03-23T09:12:38;2.73;;;1.07;;
19151;SDS011;9708;53.114;9.388;2023-03-23T09:15:06;2.37;;;1.53;;
19151;SDS011;9708;53.114;9.388;2023-03-23T09:17:34;2.43;;;1.17;;
19151;SDS011;9708;53.114;9.388;2023-03-23T09:20:04;3.70;;;1.90;;
19151;SDS011;9708;53.114;9.388;2023-03-23T09:22:35;3.03;;;1.73;;
19151;SDS011;9708;53.114;9.388;2023-03-23T09:25:03;1.60;;;1.50;;
19151;SDS011;9708;53.114;9.388;2023-03-23T09:27:31;7.23;;;1.47;;
19151;SDS011;9708;53.114;9.388;2023-03-23T09:29:57;1.63;;;1.30;;
19151;SDS011;9708;53.114;9.388;2023-03-23T09:32:25;3.93;;;0.97;;
19151;SDS011;9708;53.114;9.388;2023-03-23T09:34:52;11.80;;;5.00;;
19151;SDS011;9708;53.114;9.388;2023-03-23T09:37:22;4.00;;;1.77;;
19151;SDS011;9708;53.114;9.388;2023-03-23T09:39:49;1.37;;;1.13;;
19151;SDS011;9708;53.114;9.388;2023-03-23T09:42:20;1.10;;;1.10;;
19151;SDS011;9708;53.114;9.388;2023-03-23T09:45:01;1.30;;;1.20;;
19151;SDS011;9708;53.114;9.388;2023-03-23T09:47:37;0.87;;;0.87;;
19151;SDS011;9708;53.114;9.388;2023-03-23T09:50:09;4.53;;;1.20;;
19151;SDS011;9708;53.114;9.388;2023-03-23T09:52:41;1.23;;;1.10;;
19151;SDS011;9708;53.114;9.388;2023-03-23T09:55:13;4.87;;;1.40;;
19151;SDS011;9708;53.114;9.388;2023-03-23T09:57:44;5.80;;;1.93;;
19151;SDS011;9708;53.114;9.388;2023-03-23T10:00:16;2.07;;;1.53;;
19151;SDS011;9708;53.114;9.388;2023-03-23T10:02:48;1.23;;;1.13;;
19151;SDS011;9708;53.114;9.388;2023-03-23T10:05:29;3.90;;;1.63;;
19151;SDS011;9708;53.114;9.388;2023-03-23T10:08:00;4.37;;;1.30;;
19151;SDS011;9708;53.114;9.388;2023-03-23T10:10:31;3.60;;;2.17;;
19151;SDS011;9708;53.114;9.388;2023-03-23T10:13:09;2.03;;;1.67;;
19151;SDS011;9708;53.114;9.388;2023-03-23T10:15:41;5.33;;;1.30;;
19151;SDS011;9708;53.114;9.388;2023-03-23T10:18:10;4.17;;;1.63;;
19151;SDS011;9708;53.114;9.388;2023-03-23T10:20:43;3.93;;;2.70;;
19151;SDS011;9708;53.114;9.388;2023-03-23T10:23:24;3.83;;;1.60;;
19151;SDS011;9708;53.114;9.388;2023-03-23T10:26:08;5.20;;;1.43;;
19151;SDS011;9708;53.114;9.388;2023-03-23T10:28:43;1.40;;;1.10;;
19151;SDS011;9708;53.114;9.388;2023-03-23T10:31:13;5.33;;;1.50;;
19151;SDS011;9708;53.114;9.388;2023-03-23T10:33:44;2.53;;;1.67;;
19151;SDS011;9708;53.114;9.388;2023-03-23T10:36:14;1.10;;;1.03;;
19151;SDS011;9708;53.114;9.388;2023-03-23T10:38:47;3.13;;;1.30;;
19151;SDS011;9708;53.114;9.388;2023-03-23T10:41:20;0.80;;;0.70;;
19151;SDS011;9708;53.114;9.388;2023-03-23T10:43:47;5.50;;;1.23;;
19151;SDS011;9708;53.114;9.388;2023-03-23T10:46:18;1.00;;;0.93;;
19151;SDS011;9708;53.114;9.388;2023-03-23T10:48:52;3.37;;;2.03;;
19151;SDS011;9708;53.114;9.388;2023-03-23T10:51:22;2.00;;;1.77;;
19151;SDS011;9708;53.114;9.388;2023-03-23T10:53:58;4.33;;;1.60;;
19151;SDS011;9708;53.114;9.388;2023-03-23T10:56:27;9.40;;;2.07;;
19151;SDS011;9708;53.114;9.388;2023-03-23T10:58:56;9.37;;;3.80;;
19151;SDS011;9708;53.114;9.388;2023-03-23T11:01:28;5.23;;;1.73;;
19151;SDS011;9708;53.114;9.388;2023-03-23T11:03:56;4.97;;;2.03;;
19151;SDS011;9708;53.114;9.388;2023-03-23T11:06:27;3.97;;;1.50;;
19151;SDS011;9708;53.114;9.388;2023-03-23T11:08:58;1.00;;;1.00;;
19151;SDS011;9708;53.114;9.388;2023-03-23T11:11:29;1.80;;;1.27;;
19151;SDS011;9708;53.114;9.388;2023-03-23T11:13:58;2.13;;;1.67;;
19151;SDS011;9708;53.114;9.388;2023-03-23T11:16:27;5.63;;;1.70;;
19151;SDS011;9708;53.114;9.388;2023-03-23T11:18:57;2.70;;;1.43;;
19151;SDS011;9708;53.114;9.388;2023-03-23T11:21:25;2.37;;;2.17;;
19151;SDS011;9708;53.114;9.388;2023-03-23T11:23:54;5.23;;;2.23;;
19151;SDS011;9708;53.114;9.388;2023-03-23T11:26:26;5.87;;;1.97;;
19151;SDS011;9708;53.114;9.388;2023-03-23T11:28:56;1.53;;;1.40;;
19151;SDS011;9708;53.114;9.388;2023-03-23T11:31:27;2.83;;;1.50;;
19151;SDS011;9708;53.114;9.388;2023-03-23T11:33:56;8.30;;;3.27;;
19151;SDS011;9708;53.114;9.388;2023-03-23T11:36:30;2.47;;;1.60;;
19151;SDS011;9708;53.114;9.388;2023-03-23T11:38:58;5.90;;;2.43;;
19151;SDS011;9708;53.114;9.388;2023-03-23T11:41:28;12.97;;;5.97;;
19151;SDS011;9708;53.114;9.388;2023-03-23T11:44:01;3.73;;;1.50;;
19151;SDS011;9708;53.114;9.388;2023-03-23T11:46:37;1.50;;;1.40;;
19151;SDS011;9708;53.114;9.388;2023-03-23T11:49:12;3.87;;;1.50;;
19151;SDS011;9708;53.114;9.388;2023-03-23T11:51:45;2.23;;;1.30;;
19151;SDS011;9708;53.114;9.388;2023-03-23T11:54:17;1.63;;;1.53;;
19151;SDS011;9708;53.114;9.388;2023-03-23T11:56:49;2.87;;;1.73;;
19151;SDS011;9708;53.114;9.388;2023-03-23T11:59:16;3.60;;;1.53;;
19151;SDS011;9708;53.114;9.388;2023-03-23T12:01:48;2.17;;;1.07;;
19151;SDS011;9708;53.114;9.388;2023-03-23T12:07:32;1.20;;;1.20;;
19151;SDS011;9708;53.114;9.388;2023-03-23T12:10:12;5.97;;;1.40;;
19151;SDS011;9708;53.114;9.388;2023-03-23T12:12:49;1.60;;;1.03;;
19151;SDS011;9708;53.114;9.388;2023-03-23T12:15:23;1.90;;;1.50;;
19151;SDS011;9708;53.114;9.388;2023-03-23T12:17:56;6.57;;;1.77;;
19151;SDS011;9708;53.114;9.388;2023-03-23T12:20:30;6.33;;;2.13;;
19151;SDS011;9708;53.114;9.388;2023-03-23T12:23:05;2.20;;;1.63;;
19151;SDS011;9708;53.114;9.388;2023-03-23T12:28:49;1.80;;;1.70;;
19151;SDS011;9708;53.114;9.388;2023-03-23T12:31:48;7.20;;;3.07;;
19151;SDS011;9708;53.114;9.388;2023-03-23T12:34:24;10.10;;;4.33;;
19151;SDS011;9708;53.114;9.388;2023-03-23T12:37:13;7.17;;;2.37;;
19151;SDS011;9708;53.114;9.388;2023-03-23T12:42:50;0.80;;;0.80;;
19151;SDS011;9708;53.114;9.388;2023-03-23T12:45:24;1.13;;;0.93;;
19151;SDS011;9708;53.114;9.388;2023-03-23T12:47:56;0.90;;;0.90;;
19151;SDS011;9708;53.114;9.388;2023-03-23T12:50:28;1.20;;;1.20;;
19151;SDS011;9708;53.114;9.388;2023-03-23T12:52:59;2.53;;;0.80;;
19151;SDS011;9708;53.114;9.388;2023-03-23T12:55:32;3.00;;;1.10;;
19151;SDS011;9708;53.114;9.388;2023-03-23T12:58:02;0.75;;;0.75;;
19151;SDS011;9708;53.114;9.388;2023-03-23T13:00:35;2.13;;;1.27;;
19151;SDS011;9708;53.114;9.388;2023-03-23T13:03:17;1.25;;;0.95;;
19151;SDS011;9708;53.114;9.388;2023-03-23T13:05:52;1.47;;;1.20;;
19151;SDS011;9708;53.114;9.388;2023-03-23T13:08:32;4.17;;;2.00;;
19151;SDS011;9708;53.114;9.388;2023-03-23T13:11:03;2.70;;;1.60;;
19151;SDS011;9708;53.114;9.388;2023-03-23T13:13:41;1.60;;;1.23;;
19151;SDS011;9708;53.114;9.388;2023-03-23T13:16:16;1.67;;;1.27;;
19151;SDS011;9708;53.114;9.388;2023-03-23T13:18:54;1.27;;;1.10;;
19151;SDS011;9708;53.114;9.388;2023-03-23T13:21:30;4.43;;;1.30;;
19151;SDS011;9708;53.114;9.388;2023-03-23T13:23:59;1.87;;;1.53;;
19151;SDS011;9708;53.114;9.388;2023-03-23T13:26:28;1.00;;;1.00;;
19151;SDS011;9708;53.114;9.388;2023-03-23T13:28:56;0.97;;;0.97;;
19151;SDS011;9708;53.114;9.388;2023-03-23T13:31:28;2.60;;;0.80;;
19151;SDS011;9708;53.114;9.388;2023-03-23T13:33:59;10.03;;;4.00;;
19151;SDS011;9708;53.114;9.388;2023-03-23T13:36:29;1.37;;;1.20;;
19151;SDS011;9708;53.114;9.388;2023-03-23T13:38:58;1.73;;;1.33;;
19151;SDS011;9708;53.114;9.388;2023-03-23T13:41:26;1.10;;;1.10;;
19151;SDS011;9708;53.114;9.388;2023-03-23T13:44:04;1.52;;;1.10;;
19151;SDS011;9708;53.114;9.388;2023-03-23T13:46:42;0.80;;;0.80;;
19151;SDS011;9708;53.114;9.388;2023-03-23T13:49:19;0.98;;;0.80;;
19151;SDS011;9708;53.114;9.388;2023-03-23T13:51:52;1.05;;;0.65;;
19151;SDS011;9708;53.114;9.388;2023-03-23T13:54:29;1.52;;;1.10;;
19151;SDS011;9708;53.114;9.388;2023-03-23T13:56:58;3.38;;;1.20;;
19151;SDS011;9708;53.114;9.388;2023-03-23T13:59:29;0.90;;;0.90;;
19151;SDS011;9708;53.114;9.388;2023-03-23T14:08:00;2.17;;;0.90;;
19151;SDS011;9708;53.114;9.388;2023-03-23T14:10:33;1.02;;;0.88;;
19151;SDS011;9708;53.114;9.388;2023-03-23T14:13:02;1.45;;;1.00;;
19151;SDS011;9708;53.114;9.388;2023-03-23T14:15:30;1.00;;;1.00;;
19151;SDS011;9708;53.114;9.388;2023-03-23T14:18:12;0.80;;;0.70;;
19151;SDS011;9708;53.114;9.388;2023-03-23T14:20:41;2.07;;;0.70;;
19151;SDS011;9708;53.114;9.388;2023-03-23T14:23:14;0.50;;;0.50;;
19151;SDS011;9708;53.114;9.388;2023-03-23T14:25:42;1.23;;;1.00;;
19151;SDS011;9708;53.114;9.388;2023-03-23T14:28:16;0.90;;;0.90;;
19151;SDS011;9708;53.114;9.388;2023-03-23T14:30:46;3.50;;;1.30;;
19151;SDS011;9708;53.114;9.388;2023-03-23T14:33:14;2.67;;;0.90;;
19151;SDS011;9708;53.114;9.388;2023-03-23T14:35:41;0.80;;;0.80;;
19151;SDS011;9708;53.114;9.388;2023-03-23T14:38:12;2.67;;;0.67;;
19151;SDS011;9708;53.114;9.388;2023-03-23T14:40:43;2.33;;;0.93;;
19151;SDS011;9708;53.114;9.388;2023-03-23T14:43:10;0.80;;;0.80;;
19151;SDS011;9708;53.114;9.388;2023-03-23T14:45:40;0.43;;;0.43;;
19151;SDS011;9708;53.114;9.388;2023-03-23T14:48:08;0.70;;;0.70;;
19151;SDS011;9708;53.114;9.388;2023-03-23T14:50:40;1.00;;;0.90;;
19151;SDS011;9708;53.114;9.388;2023-03-23T14:53:12;3.60;;;1.57;;
19151;SDS011;9708;53.114;9.388;2023-03-23T14:55:43;1.90;;;1.23;;
19151;SDS011;9708;53.114;9.388;2023-03-23T14:58:12;0.57;;;0.57;;
19151;SDS011;9708;53.114;9.388;2023-03-23T15:00:41;0.80;;;0.80;;
19151;SDS011;9708;53.114;9.388;2023-03-23T15:03:12;0.50;;;0.50;;
19151;SDS011;9708;53.114;9.388;2023-03-23T15:05:44;0.80;;;0.80;;
19151;SDS011;9708;53.114;9.388;2023-03-23T15:08:15;1.63;;;0.90;;
19151;SDS011;9708;53.114;9.388;2023-03-23T15:10:51;1.17;;;1.03;;
19151;SDS011;9708;53.114;9.388;2023-03-23T15:13:20;0.70;;;0.70;;
19151;SDS011;9708;53.114;9.388;2023-03-23T15:15:47;0.60;;;0.60;;
19151;SDS011;9708;53.114;9.388;2023-03-23T15:18:22;1.27;;;0.70;;
19151;SDS011;9708;53.114;9.388;2023-03-23T15:20:58;1.10;;;0.80;;
19151;SDS011;9708;53.114;9.388;2023-03-23T15:23:35;1.47;;;1.37;;
19151;SDS011;9708;53.114;9.388;2023-03-23T15:26:14;3.80;;;1.30;;
19151;SDS011;9708;53.114;9.388;2023-03-23T15:28:49;2.13;;;0.77;;
19151;SDS011;9708;53.114;9.388;2023-03-23T15:31:16;9.30;;;1.23;;
19151;SDS011;9708;53.114;9.388;2023-03-23T15:33:43;0.87;;;0.80;;
19151;SDS011;9708;53.114;9.388;2023-03-23T15:36:15;0.63;;;0.63;;
19151;SDS011;9708;53.114;9.388;2023-03-23T15:38:44;3.47;;;1.80;;